Terminal Aerodrome Forecast
Issued by NWS Pocatello, ID

Home | Current Version | Previous Version | Text Only | Print | Product List | Glossary On
Versions: 1 2 3 4 5 6 7 8 9 10 11 12 13 14 15 16 17 18 19 20 21 22 23 24 25 26
000
FTUS45 KPIH 010500
TAFPIH
TAF
KPIH 010526Z 0106/0206 25007KT P6SM BKN015
     FM011600 VRB04KT P6SM SCT015 BKN110
     FM020400 24007KT P6SM VCSH SCT010 OVC050=

USA.gov is the U.S. government's official web portal to all federal, state and local government web resources and services.